createdAt,value
2022-11-21T00:01:21.575Z,100761.00
2022-11-21T00:03:48.710Z,100794.00
2022-11-21T00:06:19.447Z,100793.50
2022-11-21T00:08:46.892Z,100782.22
2022-11-21T00:11:14.072Z,100778.25
2022-11-21T00:13:42.764Z,100766.56
2022-11-21T00:16:15.006Z,100795.94
2022-11-21T00:18:42.564Z,100802.19
2022-11-21T00:21:19.474Z,100774.75
2022-11-21T00:23:47.015Z,100767.53
2022-11-21T00:26:15.713Z,100793.16
2022-11-21T00:28:42.982Z,100784.13
2022-11-21T00:31:23.703Z,100777.50
2022-11-21T00:33:50.487Z,100759.84
2022-11-21T00:36:17.192Z,100704.03
2022-11-21T00:38:43.943Z,100768.00
2022-11-21T00:41:13.663Z,100773.56
2022-11-21T00:43:40.357Z,100771.13
2022-11-21T00:46:07.056Z,100759.22
2022-11-21T00:48:33.742Z,100724.47
2022-11-21T00:51:03.567Z,100755.03
2022-11-21T00:53:30.591Z,100763.69
2022-11-21T00:55:57.817Z,100722.06
2022-11-21T00:58:24.751Z,100751.78
2022-11-21T01:00:53.085Z,100739.84
2022-11-21T01:03:19.817Z,100738.41
2022-11-21T01:05:46.482Z,100739.59
2022-11-21T01:08:13.120Z,100737.94
2022-11-21T01:10:39.948Z,100735.75
2022-11-21T01:13:07.600Z,100724.94
2022-11-21T01:15:34.793Z,100685.28
2022-11-21T01:18:01.580Z,100710.53
2022-11-21T01:20:28.279Z,100671.06
2022-11-21T01:22:55.174Z,100658.91
2022-11-21T01:25:21.840Z,100626.78
2022-11-21T01:27:48.483Z,100724.94
2022-11-21T01:30:17.857Z,100726.63
2022-11-21T01:32:48.411Z,100704.28
2022-11-21T01:35:15.427Z,100726.03
2022-11-21T01:37:49.194Z,100740.47
2022-11-21T01:40:16.314Z,100708.97
2022-11-21T01:42:53.459Z,100730.72
2022-11-21T01:45:59.760Z,100667.69
2022-11-21T01:48:57.648Z,100730.69
2022-11-21T01:51:57.553Z,100719.84
2022-11-21T01:54:36.952Z,100721.28
2022-11-21T01:57:10.109Z,100683.91
2022-11-21T01:59:45.338Z,100723.47
2022-11-21T02:02:20.818Z,100716.97
2022-11-21T02:04:48.563Z,100724.69
2022-11-21T02:07:18.402Z,100699.22
2022-11-21T02:09:50.956Z,100702.22
2022-11-21T02:12:38.442Z,100706.53
2022-11-21T02:15:05.949Z,100691.16
2022-11-21T02:17:35.524Z,100698.00
2022-11-21T02:20:09.418Z,100698.38
2022-11-21T02:22:43.567Z,100697.91
2022-11-21T02:25:15.138Z,100689.69
2022-11-21T02:27:42.252Z,100685.03
2022-11-21T02:30:11.247Z,100695.84
2022-11-21T02:32:41.195Z,100669.41
2022-11-21T02:35:11.078Z,100689.84
2022-11-21T02:37:37.860Z,100689.22
2022-11-21T02:40:16.370Z,100699.28
2022-11-21T02:42:56.523Z,100677.03
2022-11-21T02:45:29.039Z,100680.44
2022-11-21T02:48:02.232Z,100691.84
2022-11-21T02:50:33.695Z,100639.03
2022-11-21T02:53:00.892Z,100688.09
2022-11-21T02:55:32.618Z,100674.38
2022-11-21T02:58:04.647Z,100665.84
2022-11-21T03:00:33.629Z,100669.09
2022-11-21T03:03:00.330Z,100648.38
2022-11-21T03:05:27.497Z,100635.19
2022-11-21T03:07:54.242Z,100659.47
2022-11-21T03:10:21.052Z,100668.13
2022-11-21T03:12:47.782Z,100667.16
2022-11-21T03:15:17.255Z,100664.53
2022-11-21T03:17:45.809Z,100660.44
2022-11-21T03:20:13.193Z,100643.09
2022-11-21T03:22:39.858Z,100651.56
2022-11-21T03:25:06.645Z,100647.69
2022-11-21T03:27:33.365Z,100638.31
2022-11-21T03:30:00.080Z,100646.75
2022-11-21T03:32:29.425Z,100641.81
2022-11-21T03:34:56.452Z,100584.25
2022-11-21T03:37:37.479Z,100644.81
2022-11-21T03:40:04.763Z,100610.94
2022-11-21T03:42:31.309Z,100607.09
2022-11-21T03:44:57.997Z,100609.25
2022-11-21T03:47:27.443Z,100642.78
2022-11-21T03:49:57.130Z,100639.53
2022-11-21T03:52:23.754Z,100631.34
2022-11-21T03:54:51.173Z,100629.19
2022-11-21T03:57:17.958Z,100610.28
2022-11-21T03:59:44.737Z,100645.25
2022-11-21T04:02:11.292Z,100610.88
2022-11-21T04:04:38.079Z,100607.25
2022-11-21T04:07:04.823Z,100652.69
2022-11-21T04:09:32.693Z,100646.09
2022-11-21T04:12:00.279Z,100618.53
2022-11-21T04:14:29.623Z,100647.28
2022-11-21T04:16:56.527Z,100645.81
2022-11-21T04:19:23.164Z,100638.47
2022-11-21T04:21:49.831Z,100623.34
2022-11-21T04:24:16.491Z,100627.75
2022-11-21T04:26:43.168Z,100637.47
2022-11-21T04:29:09.844Z,100656.47
2022-11-21T04:31:36.799Z,100620.59
2022-11-21T04:34:06.338Z,100645.66
2022-11-21T04:36:36.211Z,100648.06
2022-11-21T04:39:03.251Z,100584.09
2022-11-21T04:41:29.785Z,100662.53
2022-11-21T04:43:58.620Z,100660.81
2022-11-21T04:46:25.362Z,100657.25
2022-11-21T04:48:55.273Z,100656.22
2022-11-21T04:51:22.213Z,100665.03
2022-11-21T04:53:48.939Z,100650.94
2022-11-21T04:56:16.559Z,100662.75
2022-11-21T04:58:44.848Z,100592.03
2022-11-21T05:01:11.902Z,100663.22
2022-11-21T05:03:38.757Z,100666.59
2022-11-21T05:06:05.919Z,100655.78
2022-11-21T05:08:32.737Z,100551.38
2022-11-21T05:11:19.741Z,100655.44
2022-11-21T05:13:46.463Z,100629.91
2022-11-21T05:16:15.520Z,100635.34
2022-11-21T05:18:42.838Z,100650.94
2022-11-21T05:21:11.651Z,100648.69
2022-11-21T05:23:40.017Z,100660.06
2022-11-21T05:26:06.700Z,100624.47
2022-11-21T05:28:33.302Z,100646.47
2022-11-21T05:31:01.778Z,100629.75
2022-11-21T05:33:29.793Z,100623.22
2022-11-21T05:35:56.523Z,100625.72
2022-11-21T05:38:25.057Z,100647.56
2022-11-21T05:40:54.724Z,100628.34
2022-11-21T05:43:40.011Z,100499.31
2022-11-21T05:46:08.782Z,100607.72
2022-11-21T05:48:36.920Z,100648.22
2022-11-21T05:51:06.525Z,100644.34
2022-11-21T05:53:34.259Z,100582.88
2022-11-21T05:56:12.847Z,100553.94
2022-11-21T05:58:40.158Z,100640.50
2022-11-21T06:01:08.641Z,100643.25
2022-11-21T06:03:38.461Z,100646.72
2022-11-21T06:06:14.242Z,100639.47
2022-11-21T06:08:43.097Z,100629.81
2022-11-21T06:11:14.845Z,100614.16
2022-11-21T06:13:42.490Z,100642.28
2022-11-21T06:16:15.236Z,100576.78
2022-11-21T06:18:44.303Z,100498.59
2022-11-21T06:21:17.392Z,100645.38
2022-11-21T06:23:45.511Z,100643.91
2022-11-21T06:26:17.260Z,100538.81
2022-11-21T06:28:45.035Z,100646.66
2022-11-21T06:31:14.551Z,100620.72
2022-11-21T06:33:42.325Z,100631.00
2022-11-21T06:36:12.355Z,100622.66
2022-11-21T06:38:39.849Z,100623.97
2022-11-21T06:41:13.387Z,100619.28
2022-11-21T06:43:40.712Z,100640.44
2022-11-21T06:46:08.122Z,100632.19
2022-11-21T06:48:36.120Z,100640.81
2022-11-21T06:51:19.214Z,100636.25
2022-11-21T06:53:48.305Z,100628.44
2022-11-21T06:56:15.617Z,100649.94
2022-11-21T06:58:42.335Z,100683.97
2022-11-21T07:01:10.705Z,100683.13
2022-11-21T07:03:37.786Z,100676.72
2022-11-21T07:06:13.872Z,100685.81
2022-11-21T07:08:41.189Z,100695.94
2022-11-21T07:11:24.660Z,100707.53
2022-11-21T07:13:53.123Z,100687.91
2022-11-21T07:16:19.887Z,100666.88
2022-11-21T07:18:52.217Z,100664.75
2022-11-21T07:21:19.749Z,100677.91
2022-11-21T07:23:55.822Z,100704.97
2022-11-21T07:26:25.295Z,100698.88
2022-11-21T07:28:52.453Z,100709.78
2022-11-21T07:31:22.012Z,100693.75
2022-11-21T07:33:48.701Z,100711.56
2022-11-21T07:36:15.433Z,100616.88
2022-11-21T07:38:45.949Z,100713.78
2022-11-21T07:41:12.618Z,100683.09
2022-11-21T07:43:39.366Z,100662.09
2022-11-21T07:46:08.872Z,100725.97
2022-11-21T07:48:35.547Z,100715.66
2022-11-21T07:51:08.284Z,100717.50
2022-11-21T07:53:40.178Z,100702.34
2022-11-21T07:56:09.581Z,100719.28
2022-11-21T07:58:36.666Z,100612.97
2022-11-21T08:01:07.593Z,100704.81
2022-11-21T08:03:34.675Z,100665.03
2022-11-21T08:06:06.614Z,100647.00
2022-11-21T08:08:33.204Z,100698.66
2022-11-21T08:11:07.109Z,100683.53
2022-11-21T08:13:35.518Z,100710.91
2022-11-21T08:16:05.750Z,100709.44
2022-11-21T08:18:32.757Z,100707.47
2022-11-21T08:21:04.023Z,100686.72
2022-11-21T08:23:31.968Z,100607.91
2022-11-21T08:25:59.022Z,100691.41
2022-11-21T08:28:28.619Z,100646.94
2022-11-21T08:30:55.509Z,100677.25
2022-11-21T08:33:22.970Z,100675.63
2022-11-21T08:35:49.821Z,100670.34
2022-11-21T08:38:16.574Z,100657.34
2022-11-21T08:40:43.553Z,100652.28
2022-11-21T08:43:10.420Z,100666.53
2022-11-21T08:45:38.581Z,100668.19
2022-11-21T08:48:12.056Z,100669.34
2022-11-21T08:50:38.898Z,100671.06
2022-11-21T08:53:05.823Z,100670.56
2022-11-21T08:55:35.761Z,100660.66
2022-11-21T08:58:02.406Z,100642.34
2022-11-21T09:00:29.498Z,100639.72
2022-11-21T09:02:56.401Z,100634.88
2022-11-21T09:05:26.317Z,100630.72
2022-11-21T09:07:57.706Z,100616.72
2022-11-21T09:10:25.374Z,100589.88
2022-11-21T09:12:59.653Z,100608.78
2022-11-21T09:15:44.906Z,100626.28
2022-11-21T09:18:13.993Z,100573.97
2022-11-21T09:20:43.078Z,100600.56
2022-11-21T09:23:15.552Z,100590.66
2022-11-21T09:25:44.526Z,100610.38
2022-11-21T09:28:14.941Z,100602.13
2022-11-21T09:30:42.710Z,100609.41
2022-11-21T09:33:14.666Z,100511.41
2022-11-21T09:35:45.214Z,100598.94
2022-11-21T09:38:11.876Z,100583.25
2022-11-21T09:40:44.880Z,100597.38
2022-11-21T09:43:28.630Z,100556.13
2022-11-21T09:46:28.229Z,100625.72
2022-11-21T09:48:58.904Z,100599.44
2022-11-21T09:51:32.974Z,100622.94
2022-11-21T09:54:19.980Z,100625.44
2022-11-21T09:56:49.705Z,100626.84
2022-11-21T09:59:35.846Z,100625.72
2022-11-21T10:02:03.808Z,100549.13
2022-11-21T10:04:31.799Z,100609.94
2022-11-21T10:07:04.058Z,100588.25
2022-11-21T10:09:44.610Z,100611.72
2022-11-21T10:12:40.067Z,100615.66
2022-11-21T10:15:40.251Z,100598.41
2022-11-21T10:18:42.228Z,100601.88
2022-11-21T10:21:32.382Z,100528.84
2022-11-21T10:24:02.391Z,100534.25
2022-11-21T10:26:53.684Z,100599.94
2022-11-21T10:29:27.587Z,100587.97
2022-11-21T10:32:02.370Z,100550.53
2022-11-21T10:34:37.799Z,100572.06
2022-11-21T10:37:35.271Z,100561.78
2022-11-21T10:40:35.460Z,100555.47
2022-11-21T10:43:27.314Z,100564.47
2022-11-21T10:45:56.610Z,100542.34
2022-11-21T10:48:23.388Z,100525.41
2022-11-21T10:51:04.682Z,100529.53
2022-11-21T10:53:50.880Z,100499.84
2022-11-21T10:56:20.480Z,100484.81
2022-11-21T10:58:53.186Z,100496.56
2022-11-21T11:01:31.619Z,100493.56
2022-11-21T11:06:59.833Z,100457.75
2022-11-21T11:09:32.374Z,100474.53
2022-11-21T11:12:21.193Z,100482.06
2022-11-21T11:14:56.418Z,100445.66
2022-11-21T11:17:31.719Z,100492.56
2022-11-21T11:20:08.051Z,100474.47
2022-11-21T11:22:39.450Z,100475.22
2022-11-21T11:25:09.300Z,100475.44
2022-11-21T11:27:37.731Z,100462.81
2022-11-21T11:30:09.145Z,100472.13
2022-11-21T11:32:41.334Z,100390.72
2022-11-21T11:35:17.041Z,100461.88
2022-11-21T11:37:54.884Z,100451.47
2022-11-21T11:40:28.667Z,100441.38
2022-11-21T11:43:17.397Z,100450.44
2022-11-21T11:46:33.525Z,100453.69
2022-11-21T11:49:20.236Z,100398.41
2022-11-21T11:52:00.440Z,100444.31
2022-11-21T11:54:49.547Z,100428.56
2022-11-21T11:57:31.005Z,100432.34
2022-11-21T12:00:09.300Z,100424.09
2022-11-21T12:02:56.279Z,100386.56
2022-11-21T12:05:28.204Z,100431.34
2022-11-21T12:12:08.614Z,100399.38
2022-11-21T12:15:33.154Z,100401.88
2022-11-21T12:18:23.542Z,100402.06
2022-11-21T12:21:19.296Z,100408.22
2022-11-21T12:23:53.778Z,100333.81
2022-11-21T12:26:21.907Z,100323.44
2022-11-21T12:28:51.911Z,100387.03
2022-11-21T12:31:36.835Z,100388.13
2022-11-21T12:34:21.344Z,100394.22
2022-11-21T12:37:27.639Z,100360.53
2022-11-21T12:40:12.336Z,100408.44
2022-11-21T12:42:55.643Z,100408.75
2022-11-21T12:45:47.815Z,100390.88
2022-11-21T12:48:53.029Z,100375.16
2022-11-21T12:52:02.147Z,100279.81
2022-11-21T12:55:07.025Z,100309.97
2022-11-21T12:57:50.633Z,100330.63
2022-11-21T13:00:43.001Z,100373.53
2022-11-21T13:03:20.398Z,100318.44
2022-11-21T13:05:53.195Z,100352.47
2022-11-21T13:08:29.335Z,100382.03
2022-11-21T13:11:23.441Z,100389.75
2022-11-21T13:14:17.878Z,100279.41
2022-11-21T13:17:02.438Z,100380.25
2022-11-21T13:19:59.059Z,100354.56
2022-11-21T13:22:47.212Z,100372.75
2022-11-21T13:25:41.940Z,100368.91
2022-11-21T13:28:17.724Z,100356.22
2022-11-21T13:30:49.826Z,100273.78
2022-11-21T13:33:39.992Z,100304.16
2022-11-21T13:36:40.566Z,100334.53
2022-11-21T13:39:34.435Z,100305.47
2022-11-21T13:42:28.854Z,100356.84
2022-11-21T13:45:01.592Z,100334.44
2022-11-21T13:48:00.495Z,100358.56
2022-11-21T13:50:52.718Z,100350.88
2022-11-21T13:53:58.659Z,100213.91
2022-11-21T13:56:40.366Z,100345.38
2022-11-21T13:59:20.309Z,100290.16
2022-11-21T14:02:13.808Z,100331.19
2022-11-21T14:05:08.056Z,100330.53
2022-11-21T14:07:39.010Z,100319.03
2022-11-21T14:10:37.569Z,100271.13
2022-11-21T14:13:07.542Z,100301.47
2022-11-21T14:15:54.663Z,100273.13
2022-11-21T14:18:39.429Z,100292.16
2022-11-21T14:21:11.613Z,100300.78
2022-11-21T14:23:58.579Z,100267.38
2022-11-21T14:26:26.395Z,100319.81
2022-11-21T14:28:53.175Z,100334.69
2022-11-21T14:31:22.700Z,100244.06
2022-11-21T14:33:51.286Z,100338.84
2022-11-21T14:36:25.075Z,100280.78
2022-11-21T14:39:21.082Z,100325.19
2022-11-21T14:41:43.524Z,100306.84
2022-11-21T14:44:10.082Z,100319.47
2022-11-21T14:46:39.986Z,100295.28
2022-11-21T14:49:29.538Z,100332.13
2022-11-21T14:52:11.813Z,100323.44
2022-11-21T14:55:30.194Z,100303.06
2022-11-21T14:58:07.094Z,100265.53
2022-11-21T15:01:02.543Z,100261.06
2022-11-21T15:03:33.485Z,100300.13
2022-11-21T15:06:08.774Z,100294.44
2022-11-21T15:11:47.410Z,100185.63
2022-11-21T15:14:47.319Z,100298.22
2022-11-21T15:17:20.468Z,100305.34
2022-11-21T15:19:47.545Z,100315.03
2022-11-21T15:22:27.540Z,100241.22
2022-11-21T15:25:16.290Z,100310.09
2022-11-21T15:27:47.301Z,100308.41
2022-11-21T15:30:14.026Z,100300.59
2022-11-21T15:33:03.482Z,100311.75
2022-11-21T15:35:53.615Z,100316.06
2022-11-21T15:38:47.367Z,100311.88
2022-11-21T15:41:14.636Z,100287.41
2022-11-21T15:43:55.008Z,100306.47
2022-11-21T15:46:35.950Z,100313.63
2022-11-21T15:49:31.062Z,100297.81
2022-11-21T15:52:10.527Z,100278.94
2022-11-21T15:54:37.391Z,100278.38
2022-11-21T15:57:04.235Z,100286.44
2022-11-21T15:59:31.421Z,100282.13
2022-11-21T16:01:58.785Z,100271.97
2022-11-21T16:04:26.503Z,100237.72
2022-11-21T16:07:00.813Z,100277.63
2022-11-21T16:09:29.643Z,100269.09
2022-11-21T16:11:56.833Z,100244.69
2022-11-21T16:14:23.886Z,100269.38
2022-11-21T16:16:53.695Z,100216.91
2022-11-21T16:19:23.805Z,100253.22
2022-11-21T16:21:51.089Z,100250.31
2022-11-21T16:24:33.069Z,100201.31
2022-11-21T16:27:00.022Z,100041.66
2022-11-21T16:29:27.215Z,100174.44
2022-11-21T16:31:59.652Z,100239.47
2022-11-21T16:34:32.833Z,100197.31
2022-11-21T16:37:02.877Z,100222.66
2022-11-21T16:39:34.332Z,100236.63
2022-11-21T16:42:05.377Z,100218.88
2022-11-21T16:44:32.227Z,100191.69
2022-11-21T16:47:07.822Z,100212.19
2022-11-21T16:49:35.370Z,100209.53
2022-11-21T16:52:04.599Z,100197.41
2022-11-21T16:54:31.227Z,100195.31
2022-11-21T16:56:57.953Z,100154.88
2022-11-21T16:59:24.728Z,100142.44
2022-11-21T17:02:01.781Z,100197.56
2022-11-21T17:04:28.437Z,100184.59
2022-11-21T17:06:55.322Z,100206.66
2022-11-21T17:09:22.450Z,100158.50
2022-11-21T17:11:53.870Z,100137.38
2022-11-21T17:14:20.638Z,100148.69
2022-11-21T17:16:49.033Z,100138.16
2022-11-21T17:19:16.440Z,100161.69
2022-11-21T17:21:43.568Z,100200.38
2022-11-21T17:24:12.885Z,100195.34
2022-11-21T17:26:43.859Z,100205.59
2022-11-21T17:29:16.827Z,100209.88
2022-11-21T17:31:43.537Z,100197.84
2022-11-21T17:34:11.926Z,100192.38
2022-11-21T17:36:38.629Z,100191.25
2022-11-21T17:39:05.617Z,100191.00
2022-11-21T17:41:32.401Z,100161.16
2022-11-21T17:44:01.064Z,100174.75
2022-11-21T17:46:28.622Z,100188.28
2022-11-21T17:48:58.779Z,100170.81
2022-11-21T17:54:20.559Z,100134.34
2022-11-21T17:56:55.274Z,100121.97
2022-11-21T17:59:23.541Z,100147.47
2022-11-21T18:01:50.335Z,100132.78
2022-11-21T18:04:18.324Z,100157.59
2022-11-21T18:06:45.293Z,100138.88
2022-11-21T18:09:15.375Z,100137.19
2022-11-21T18:11:43.871Z,100091.38
2022-11-21T18:14:12.024Z,100110.34
2022-11-21T18:16:49.398Z,100054.84
2022-11-21T18:19:19.913Z,100027.91
2022-11-21T18:21:46.904Z,100080.41
2022-11-21T18:24:14.036Z,100108.44
2022-11-21T18:26:43.519Z,100107.22
2022-11-21T18:29:35.700Z,100085.09
2022-11-21T18:32:03.216Z,100095.56
2022-11-21T18:34:30.074Z,100104.34
2022-11-21T18:37:00.025Z,100092.03
2022-11-21T18:39:27.108Z,100106.59
2022-11-21T18:41:53.941Z,100111.84
2022-11-21T18:44:22.449Z,100086.97
2022-11-21T18:46:53.742Z,100079.41
2022-11-21T18:49:32.328Z,100089.66
2022-11-21T18:52:01.084Z,100100.38
2022-11-21T18:54:27.737Z,100079.13
2022-11-21T18:56:58.853Z,100087.25
2022-11-21T18:59:25.652Z,100098.88
2022-11-21T19:01:53.812Z,100065.09
2022-11-21T19:04:20.831Z,100092.09
2022-11-21T19:06:52.673Z,100086.50
2022-11-21T19:09:19.208Z,100079.03
2022-11-21T19:11:46.301Z,100083.63
2022-11-21T19:14:14.011Z,100057.22
2022-11-21T19:16:41.829Z,100047.53
2022-11-21T19:22:01.354Z,100039.00
2022-11-21T19:24:28.267Z,100036.69
2022-11-21T19:26:54.912Z,100020.69
2022-11-21T19:29:21.880Z,100064.84
2022-11-21T19:31:48.601Z,100010.84
2022-11-21T19:34:16.148Z,100060.16
2022-11-21T19:36:44.584Z,100084.13
2022-11-21T19:39:11.897Z,100063.03
2022-11-21T19:41:38.705Z,99997.25
2022-11-21T19:44:13.007Z,100043.38
2022-11-21T19:46:40.324Z,100041.31
2022-11-21T19:49:08.521Z,99986.63
2022-11-21T19:51:42.919Z,100010.03
2022-11-21T19:54:12.781Z,100050.56
2022-11-21T19:56:40.394Z,100040.09
2022-11-21T19:59:11.523Z,100032.72
2022-11-21T20:01:41.684Z,100033.22
2022-11-21T20:04:08.690Z,100008.53
2022-11-21T20:06:41.759Z,100032.91
2022-11-21T20:09:12.100Z,100038.06
2022-11-21T20:11:44.441Z,100003.84
2022-11-21T20:14:19.521Z,100041.81
2022-11-21T20:16:56.045Z,100007.81
2022-11-21T20:19:27.200Z,100019.94
2022-11-21T20:21:57.515Z,100035.19
2022-11-21T20:24:24.385Z,100016.44
2022-11-21T20:26:53.411Z,100028.66
2022-11-21T20:29:23.481Z,100021.78
2022-11-21T20:31:50.387Z,100039.47
2022-11-21T20:34:18.512Z,100033.75
2022-11-21T20:36:46.976Z,99980.75
2022-11-21T20:39:16.228Z,99993.34
2022-11-21T20:41:43.850Z,100024.72
2022-11-21T20:45:29.935Z,99937.75
2022-11-21T20:47:07.508Z,99945.56
2022-11-21T20:49:35.353Z,99994.66
2022-11-21T20:54:54.436Z,99998.31
2022-11-21T20:57:28.518Z,99962.59
2022-11-21T20:59:59.645Z,99983.84
2022-11-21T21:02:31.381Z,99973.91
2022-11-21T21:05:26.793Z,99958.81
2022-11-21T21:07:56.765Z,99973.09
2022-11-21T21:10:37.331Z,99973.81
2022-11-21T21:13:15.376Z,99955.03
2022-11-21T21:15:42.506Z,99952.53
2022-11-21T21:18:14.148Z,99956.69
2022-11-21T21:21:09.417Z,99956.25
2022-11-21T21:23:38.699Z,99965.34
2022-11-21T21:26:29.113Z,99955.88
2022-11-21T21:28:58.575Z,99950.88
2022-11-21T21:31:36.368Z,99889.00
2022-11-21T21:34:09.776Z,99934.03
2022-11-21T21:36:39.929Z,99805.25
2022-11-21T21:39:12.052Z,99860.94
2022-11-21T21:41:52.132Z,99919.75
2022-11-21T21:44:33.253Z,99771.84
2022-11-21T21:47:00.438Z,99891.00
2022-11-21T21:49:29.768Z,99914.75
2022-11-21T21:54:50.186Z,99934.84
2022-11-21T21:57:17.345Z,99896.78
2022-11-21T21:59:56.197Z,99918.38
2022-11-21T22:02:26.501Z,99921.13
2022-11-21T22:04:53.503Z,99924.94
2022-11-21T22:07:23.657Z,99914.84
2022-11-21T22:09:53.018Z,99910.44
2022-11-21T22:12:19.887Z,99895.34
2022-11-21T22:14:56.797Z,99868.91
2022-11-21T22:17:25.525Z,99892.03
2022-11-21T22:19:59.211Z,99858.75
2022-11-21T22:22:26.807Z,99900.22
2022-11-21T22:24:54.950Z,99857.06
2022-11-21T22:27:25.515Z,99873.59
2022-11-21T22:29:52.358Z,99896.94
2022-11-21T22:32:20.030Z,99880.34
2022-11-21T22:34:47.077Z,99821.47
2022-11-21T22:37:14.158Z,99848.50
2022-11-21T22:39:43.485Z,99773.75
2022-11-21T22:42:13.407Z,99844.66
2022-11-21T22:44:40.785Z,99807.59
2022-11-21T22:47:11.259Z,99835.00
2022-11-21T22:49:41.442Z,99841.34
2022-11-21T22:52:17.001Z,99829.66
2022-11-21T22:54:44.008Z,99845.94
2022-11-21T22:57:16.634Z,99843.06
2022-11-21T22:59:43.639Z,99834.25
2022-11-21T23:02:16.633Z,99840.41
2022-11-21T23:04:46.197Z,99831.38
2022-11-21T23:07:16.137Z,99790.03
2022-11-21T23:09:45.211Z,99816.97
2022-11-21T23:12:13.021Z,99819.56
2022-11-21T23:14:41.534Z,99791.31
2022-11-21T23:17:08.959Z,99780.84
2022-11-21T23:19:36.017Z,99794.53
2022-11-21T23:22:02.717Z,99772.59
2022-11-21T23:24:32.685Z,99785.63
2022-11-21T23:26:59.315Z,99740.53
2022-11-21T23:29:28.722Z,99789.41
2022-11-21T23:31:55.569Z,99756.44
2022-11-21T23:34:24.962Z,99725.47
2022-11-21T23:36:51.664Z,99754.16
2022-11-21T23:39:18.357Z,99727.72
2022-11-21T23:41:48.210Z,99727.88
2022-11-21T23:44:15.164Z,99740.88
2022-11-21T23:46:42.326Z,99735.25
2022-11-21T23:49:09.276Z,99707.66
2022-11-21T23:51:35.883Z,99666.47
2022-11-21T23:54:02.961Z,99688.91
2022-11-21T23:56:37.274Z,99680.38
2022-11-21T23:59:03.946Z,99666.56
